sensor_id;sensor_type;location;lat;lon;timestamp;pressure;altitude;pressure_sealevel;temperature;humidity
71642;BME280;60657;50.122;14.468;2023-08-07T15:47:12;97764.72855197763;;;19.611276417181656;59.23994811932555
71642;BME280;60657;50.122;14.468;2023-08-07T15:50:20;97771.70196989064;;;19.758144502937355;58.50751506828412
71642;BME280;60657;50.122;14.468;2023-08-07T15:53:29;97776.41641887401;;;19.867627985046155;56.72983901731899
71642;BME280;60657;50.122;14.468;2023-08-07T15:56:38;97771.34932828367;;;20.180056458381017;55.01510643167773
71642;BME280;60657;50.122;14.468;2023-08-07T15:59:47;97780.37830148349;;;19.696726939803156;55.49385824368658
71642;BME280;60657;50.122;14.468;2023-08-07T16:02:56;97785.75124027094;;;19.55786984054322;56.38651102464332
71642;BME280;60657;50.122;14.468;2023-08-07T16:06:04;97785.78553183311;;;19.30151827267872;57.49279011215381
71642;BME280;60657;50.122;14.468;2023-08-07T16:09:13;97780.94866832602;;;19.034485389486534;57.86854352635996
71642;BME280;60657;50.122;14.468;2023-08-07T16:12:21;97788.5032847132;;;18.69001297016861;59.331502250705725
71642;BME280;60657;50.122;14.468;2023-08-07T16:15:30;97807.16067636608;;;18.617914091706723;59.67292286564431
71642;BME280;60657;50.122;14.468;2023-08-07T16:18:39;97802.07845102464;;;18.44167238879988;60.43015182726788
71642;BME280;60657;50.122;14.468;2023-08-07T16:21:49;97804.951660034;;;18.078507667658506;61.38765545128557
71642;BME280;60657;50.122;14.468;2023-08-07T16:24:58;97800.55841210262;;;18.2120241092546;61.63942931258106
71642;BME280;60657;50.122;14.468;2023-08-07T16:28:07;97801.37908905858;;;18.19600213626307;61.54215304798963
71642;BME280;60657;50.122;14.468;2023-08-07T16:31:15;97818.31488210282;;;18.14526588845655;61.86259250782025
71642;BME280;60657;50.122;14.468;2023-08-07T16:34:24;97799.7377386089;;;18.214694438086518;61.80346379797055
71642;BME280;60657;50.122;14.468;2023-08-07T16:37:33;97817.30068879422;;;17.95033188372625;62.179217212176695
71642;BME280;60657;50.122;14.468;2023-08-07T16:40:42;97821.96707208703;;;17.878233005264363;62.598840314335845
71642;BME280;60657;50.122;14.468;2023-08-07T16:43:51;97820.49167947912;;;17.88891432059205;62.896391241321425
71642;BME280;60657;50.122;14.468;2023-08-07T16:47:02;97821.20168705269;;;17.88891432059205;62.62363622491799
71642;BME280;60657;50.122;14.468;2023-08-07T16:50:11;97836.69932554245;;;17.72068360418097;63.01464866102083
71642;BME280;60657;50.122;14.468;2023-08-07T16:53:20;97835.05682729934;;;17.7607385366598;62.799114976729996
71642;BME280;60657;50.122;14.468;2023-08-07T16:56:28;97834.23558339968;;;17.7367055771725;62.83535515373464
71642;BME280;60657;50.122;14.468;2023-08-07T16:59:37;97835.76860986906;;;17.8461890592813;62.71328297856107
71642;BME280;60657;50.122;14.468;2023-08-07T17:02:46;97828.268045673;;;17.79545281147478;63.06614785992218
71642;BME280;60657;50.122;14.468;2023-08-07T17:05:55;97829.5792502596;;;17.86488136110475;62.65415426871138
71642;BME280;60657;50.122;14.468;2023-08-07T17:09:04;97841.40734485108;;;17.870222018768594;62.90974288548104
71642;BME280;60657;50.122;14.468;2023-08-07T17:12:12;97855.09536107666;;;17.747386892500188;62.79148546578165
71642;BME280;60657;50.122;14.468;2023-08-07T17:15:21;97868.67118547206;;;17.798123140306707;62.934538796063165
71642;BME280;60657;50.122;14.468;2023-08-07T17:18:30;97866.20663250383;;;17.768749523155563;62.97077897306782
71642;BME280;60657;50.122;14.468;2023-08-07T17:21:49;97872.22536135644;;;17.758068207827876;63.38849469748989
71642;BME280;60657;50.122;14.468;2023-08-07T17:24:58;97877.10144657615;;;17.800793469138625;63.25116350041962
71642;BME280;60657;50.122;14.468;2023-08-07T17:28:07;97883.33159981204;;;17.555123216601814;63.806210421911956
71642;BME280;60657;50.122;14.468;2023-08-07T17:31:15;97877.28096094562;;;17.384222171358815;64.28305485618372
71642;BME280;60657;50.122;14.468;2023-08-07T17:34:24;97888.68348110798;;;17.24269474326696;64.76752880140383
71642;BME280;60657;50.122;14.468;2023-08-07T17:37:33;97879.48978683623;;;17.312123292896928;64.88006408789197
71642;BME280;60657;50.122;14.468;2023-08-07T17:40:42;97887.34233462965;;;17.14923323414969;65.35118638895247
71642;BME280;60657;50.122;14.468;2023-08-07T17:43:50;97889.53343830613;;;16.948958571755547;65.82612344548714
71642;BME280;60657;50.122;14.468;2023-08-07T17:46:59;97879.52034561463;;;16.959639887083235;65.87953002212558
71642;BME280;60657;50.122;14.468;2023-08-07T17:50:18;97895.05163843573;;;16.842145418478673;66.52803845273517
71642;BME280;60657;50.122;14.468;2023-08-07T17:53:36;97887.40945071144;;;16.855497062638285;66.19043259327077
71642;BME280;60657;50.122;14.468;2023-08-07T17:57:11;97901.87044358974;;;16.890211337453266;66.45937285420004
71642;BME280;60657;50.122;14.468;2023-08-07T18:00:36;97896.79254833127;;;16.844815747310598;66.39452201113909
71642;BME280;60657;50.122;14.468;2023-08-07T18:03:46;97901.04810096946;;;16.91157396810864;66.51659418631266
71642;BME280;60657;50.122;14.468;2023-08-07T18:06:54;97908.59282131662;;;16.866178377965973;66.74738689250019
71642;BME280;60657;50.122;14.468;2023-08-07T18:10:03;97907.77042133754;;;16.866178377965973;66.6424811169604
71642;BME280;60657;50.122;14.468;2023-08-07T18:13:13;97925.5631368426;;;16.812771801327536;67.1002517738613
71642;BME280;60657;50.122;14.468;2023-08-07T18:16:22;97926.338731468;;;16.796749828336004;67.04303044174868
71642;BME280;60657;50.122;14.468;2023-08-07T18:19:31;97936.2098607324;;;16.91157396810864;67.16128786144809
71642;BME280;60657;50.122;14.468;2023-08-07T18:22:39;97944.90423822906;;;16.83413443198291;67.39208056763562
71642;BME280;60657;50.122;14.468;2023-08-07T18:25:48;97970.27822871087;;;16.695277332722974;70.07385366598001
71642;BME280;60657;50.122;14.468;2023-08-07T18:28:57;97983.55943534896;;;16.34813458457313;71.89158464942398
71642;BME280;60657;50.122;14.468;2023-08-07T18:32:06;97985.02758967805;;;16.139848935683226;73.70931563286793
71642;BME280;60657;50.122;14.468;2023-08-07T18:35:15;97978.15892358575;;;15.942244602121;74.09079118028535
71642;BME280;60657;50.122;14.468;2023-08-07T18:38:26;97984.06279605484;;;15.571068894483865;75.57854581521325
71642;BME280;60657;50.122;14.468;2023-08-07T18:41:35;97987.74451600731;;;15.496299687190053;75.06355382619974
71642;BME280;60657;50.122;14.468;2023-08-07T18:44:44;97985.19637111355;;;15.52567330434119;74.91859311818112
71642;BME280;60657;50.122;14.468;2023-08-07T18:47:52;97994.4119503761;;;15.544365606164646;74.8632791638056
71642;BME280;60657;50.122;14.468;2023-08-07T18:51:06;97991.9402444563;;;15.555046921492334;75.27336537727932
71642;BME280;60657;50.122;14.468;2023-08-07T18:54:24;97986.68974857319;;;15.645838101777677;75.65674830243381
71642;BME280;60657;50.122;14.468;2023-08-07T18:57:32;98004.1454002847;;;15.643167772945752;75.74258030060273
71642;BME280;60657;50.122;14.468;2023-08-07T19:00:41;98008.38055039356;;;15.656519417105365;76.10688944838635
71642;BME280;60657;50.122;14.468;2023-08-07T19:03:50;98010.81398507752;;;15.66987106126497;75.83222705424582
71642;BME280;60657;50.122;14.468;2023-08-07T19:06:59;98022.42686289297;;;15.709925993743802;75.77500572213322
71642;BME280;60657;50.122;14.468;2023-08-07T19:10:08;98024.82181305283;;;15.760662241550314;75.7330434119173
71642;BME280;60657;50.122;14.468;2023-08-07T19:13:18;98029.95850988236;;;15.71259632257572;75.95429922941939
71642;BME280;60657;50.122;14.468;2023-08-07T19:16:30;98028.19515090209;;;15.760662241550314;75.34393835355154
71642;BME280;60657;50.122;14.468;2023-08-07T19:19:40;98030.66732780496;;;15.744640268558783;75.15510795757992
71642;BME280;60657;50.122;14.468;2023-08-07T19:22:49;98031.52991539269;;;15.76333257038224;75.07690547035935
71642;BME280;60657;50.122;14.468;2023-08-07T19:25:57;98043.3734472486;;;15.707255664911877;75.5117875944152
71642;BME280;60657;50.122;14.468;2023-08-07T19:29:06;98042.35863748516;;;15.792706187533376;75.05592431525139
71642;BME280;60657;50.122;14.468;2023-08-07T19:32:15;98046.44101310424;;;15.808728160524907;74.9796292057679
71642;BME280;60657;50.122;14.468;2023-08-07T19:35:24;98045.65527629589;;;15.814068818188751;74.47798886091401
71642;BME280;60657;50.122;14.468;2023-08-07T19:38:33;98048.79760487;;;15.878156710154876;73.44037537193866
71642;BME280;60657;50.122;14.468;2023-08-07T19:41:42;98048.01217740502;;;15.774013885709927;72.74036774242771
71642;BME280;60657;50.122;14.468;2023-08-07T19:44:51;98057.57471618504;;;15.699244678416115;73.8180361638819
71642;BME280;60657;50.122;14.468;2023-08-07T19:47:59;98059.22334857276;;;15.701915007248033;73.10849164568552
71642;BME280;60657;50.122;14.468;2023-08-07T19:51:08;98069.19081252588;;;15.76333257038224;72.87388418402381
71642;BME280;60657;50.122;14.468;2023-08-07T19:54:21;98063.42022783343;;;15.709925993743802;72.43518730449378
71642;BME280;60657;50.122;14.468;2023-08-07T19:57:30;98073.53706514821;;;15.688563363088427;72.37224383916991
71642;BME280;60657;50.122;14.468;2023-08-07T20:00:39;98071.13771967392;;;15.637827115281908;72.58396276798658
71642;BME280;60657;50.122;14.468;2023-08-07T20:03:48;98080.39107737859;;;15.608453498130771;72.68696116578927
71642;BME280;60657;50.122;14.468;2023-08-07T20:06:59;98078.77850216806;;;15.589761196307315;72.62783245593957
71642;BME280;60657;50.122;14.468;2023-08-07T20:10:08;98067.23508136302;;;15.517662317845428;72.4924086366064
71642;BME280;60657;50.122;14.468;2023-08-07T20:13:17;98079.1389266125;;;15.429541466392003;71.66842145418478
71642;BME280;60657;50.122;14.468;2023-08-07T20:16:27;98070.10344309232;;;15.349431601434347;72.50957503624018
71642;BME280;60657;50.122;14.468;2023-08-07T20:19:36;98087.8423507921;;;15.199893186846722;72.01937895780881
71642;BME280;60657;50.122;14.468;2023-08-07T20:22:45;98094.61307169803;;;15.258640421149003;72.50003814755475
71642;BME280;60657;50.122;14.468;2023-08-07T20:25:54;98075.43612998062;;;15.17586022735943;72.61638818951705
71642;BME280;60657;50.122;14.468;2023-08-07T20:29:03;98077.08563148632;;;15.237277790493629;72.64309147783626
71642;BME280;60657;50.122;14.468;2023-08-07T20:32:12;98090.62461996227;;;15.183871213855191;72.95208667124437
71642;BME280;60657;50.122;14.468;2023-08-07T20:35:21;98084.8165725848;;;15.178530556191348;73.45754177157244
71642;BME280;60657;50.122;14.468;2023-08-07T20:38:30;98092.24056843903;;;15.199893186846722;73.36789501792936
71642;BME280;60657;50.122;14.468;2023-08-07T20:41:39;98087.12082016766;;;15.274662394140535;72.93110551613641
71642;BME280;60657;50.122;14.468;2023-08-07T20:44:48;98097.15604357142;;;15.27733272297246;73.14473182269016
71642;BME280;60657;50.122;14.468;2023-08-07T20:47:57;98097.94684831041;;;15.298695353627835;72.15098802166781
71642;BME280;60657;50.122;14.468;2023-08-07T20:51:05;98103.0325362669;;;15.237277790493629;72.52674143587396
71642;BME280;60657;50.122;14.468;2023-08-07T20:54:14;98091.93179016394;;;15.325398641947054;72.44472419317921
71642;BME280;60657;50.122;14.468;2023-08-07T20:57:26;98101.31473571711;;;15.266651407644773;72.58968490119783
71642;BME280;60657;50.122;14.468;2023-08-07T21:00:34;98088.63254346428;;;15.389486533913178;73.03410391393912
71642;BME280;60657;50.122;14.468;2023-08-07T21:03:43;98086.08870229738;;;15.317387655451284;72.72129396505684
71642;BME280;60657;50.122;14.468;2023-08-07T21:06:52;98097.22399007005;;;15.186541542687117;72.98451209277485
71642;BME280;60657;50.122;14.468;2023-08-07T21:10:01;98113.36680303172;;;15.119783321889066;73.54528114747845
71642;BME280;60657;50.122;14.468;2023-08-07T21:13:13;98113.30093678179;;;15.14915693904021;73.54337376974136
71642;BME280;60657;50.122;14.468;2023-08-07T21:16:22;98105.14832039406;;;15.055695429922942;73.85999847409781
71642;BME280;60657;50.122;14.468;2023-08-07T21:19:31;98106.0710604242;;;15.028992141603723;73.91340505073624
71642;BME280;60657;50.122;14.468;2023-08-07T21:22:39;98110.09904827761;;;15.093080033569848;74.27771419851987
71642;BME280;60657;50.122;14.468;2023-08-07T21:25:48;98106.79854864841;;;15.077058060578317;74.12512397955291
71642;BME280;60657;50.122;14.468;2023-08-07T21:28:57;98106.00606243445;;;15.00495918211643;74.29488059815365
71642;BME280;60657;50.122;14.468;2023-08-07T21:32:06;98112.80157039814;;;14.970244907301442;74.1861600671397
71642;BME280;60657;50.122;14.468;2023-08-07T21:35:15;98115.40518847655;;;14.948882276646067;74.52758068207828
71642;BME280;60657;50.122;14.468;2023-08-07T21:38:24;98117.88097885004;;;14.932860303654536;74.51232166018158
71642;BME280;60657;50.122;14.468;2023-08-07T21:41:33;98121.34042235841;;;14.868772411688411;74.5390249485008
71642;BME280;60657;50.122;14.468;2023-08-07T21:44:42;98118.1329733707;;;14.815365835049974;74.63630121309224
71642;BME280;60657;50.122;14.468;2023-08-07T21:47:51;98109.87970690607;;;14.769970244907299;75.05592431525139
71642;BME280;60657;50.122;14.468;2023-08-07T21:51:00;98119.96912253396;;;14.74326695658808;75.11886778057527
71642;BME280;60657;50.122;14.468;2023-08-07T21:54:11;98123.45333239347;;;14.676508735790037;75.00442511635005
71642;BME280;60657;50.122;14.468;2023-08-07T21:57:20;98120.85567313527;;;14.732585641260393;75.03875791561761
71642;BME280;60657;50.122;14.468;2023-08-07T22:00:33;98123.39283165455;;;14.732585641260393;74.87663080796521
71642;BME280;60657;50.122;14.468;2023-08-07T22:03:44;98126.69470408435;;;14.74326695658808;74.84992751964599
71642;BME280;60657;50.122;14.468;2023-08-07T22:06:53;98111.71521636563;;;14.719233997100787;74.95864805065995
71642;BME280;60657;50.122;14.468;2023-08-07T22:10:02;98117.76496253151;;;14.55634393835355;75.0101472495613
71642;BME280;60657;50.122;14.468;2023-08-07T22:13:13;98108.59528079709;;;14.591058213168537;74.99107347219044
71642;BME280;60657;50.122;14.468;2023-08-07T22:16:22;98108.53512009523;;;14.625772487983518;74.84039063096056
71642;BME280;60657;50.122;14.468;2023-08-07T22:19:31;98126.10937238317;;;14.612420843823912;74.87090867475395
71642;BME280;60657;50.122;14.468;2023-08-07T22:22:40;98118.62024944928;;;14.585717555504694;75.06546120393683
71642;BME280;60657;50.122;14.468;2023-08-07T22:25:49;98117.88361203464;;;14.559014267185475;74.98725871671625
71642;BME280;60657;50.122;14.468;2023-08-07T22:28:58;98119.59350123377;;;14.553673609521631;74.85183489738307
71642;BME280;60657;50.122;14.468;2023-08-07T22:32:07;98117.91305703118;;;14.567025253681237;74.93385214007782
71642;BME280;60657;50.122;14.468;2023-08-07T22:35:16;98126.19799038;;;14.548332951857788;74.69924467841611
71642;BME280;60657;50.122;14.468;2023-08-07T22:38:25;98116.29134340158;;;14.516289005874725;74.62867170214389
71642;BME280;60657;50.122;14.468;2023-08-07T22:41:34;98119.59350123377;;;14.526970321202413;74.31013962005035
71642;BME280;60657;50.122;14.468;2023-08-07T22:44:43;98112.812130391;;;14.617761501487756;74.12321660181583
71642;BME280;60657;50.122;14.468;2023-08-07T22:47:52;98121.21520606136;;;14.553673609521631;73.76081483176928
71642;BME280;60657;50.122;14.468;2023-08-07T22:51:00;98109.42069742008;;;14.636453803311205;73.74746318760967
71642;BME280;60657;50.122;14.468;2023-08-07T22:54:09;98108.50490927837;;;14.668497749294268;73.5529106584268
71642;BME280;60657;50.122;14.468;2023-08-07T22:57:18;98115.01673555582;;;14.729915312428474;73.57961394674601
71642;BME280;60657;50.122;14.468;2023-08-07T23:00:27;98115.07774334341;;;14.70054169527733;73.48996719310293
71642;BME280;60657;50.122;14.468;2023-08-07T23:03:36;98119.11303398634;;;14.818036163881892;73.70931563286793
71642;BME280;60657;50.122;14.468;2023-08-07T23:06:45;98127.55052234729;;;14.748607614251924;73.51476310368506
71642;BME280;60657;50.122;14.468;2023-08-07T23:09:54;98123.33198286127;;;14.794003204394599;73.68261234454872
71642;BME280;60657;50.122;14.468;2023-08-07T23:13:03;98131.64762091884;;;14.74326695658808;73.78179598687724
71642;BME280;60657;50.122;14.468;2023-08-07T23:16:12;98130.02700372263;;;14.72457465476463;73.80849927519645
71642;BME280;60657;50.122;14.468;2023-08-07T23:19:21;98136.01619980735;;;14.625772487983518;73.95727473868925
71642;BME280;60657;50.122;14.468;2023-08-07T23:22:30;98136.84179222333;;;14.676508735790037;74.25291828793775
71642;BME280;60657;50.122;14.468;2023-08-07T23:25:39;98141.76552976966;;;14.729915312428474;73.91531242847333
71642;BME280;60657;50.122;14.468;2023-08-07T23:28:48;98126.81550875628;;;14.687190051117724;74.03738460364691
71642;BME280;60657;50.122;14.468;2023-08-07T23:31:56;98131.12200000395;;;14.617761501487756;74.08697642481117
71642;BME280;60657;50.122;14.468;2023-08-07T23:35:05;98141.14728123495;;;14.620431830319674;74.16327153429465
71642;BME280;60657;50.122;14.468;2023-08-07T23:38:15;98134.48338674952;;;14.601739528496225;74.15182726787214
71642;BME280;60657;50.122;14.468;2023-08-07T23:41:24;98135.48399887989;;;14.484245059891663;74.57335774776837
71642;BME280;60657;50.122;14.468;2023-08-07T23:44:38;98145.65006931273;;;14.388113221942476;74.68398565651941
71642;BME280;60657;50.122;14.468;2023-08-07T23:47:47;98141.49283553452;;;14.40947585259785;74.95483329518578
71642;BME280;60657;50.122;14.468;2023-08-07T23:50:56;98130.64467042463;;;14.40947585259785;74.66300450141146
71642;BME280;60657;50.122;14.468;2023-08-07T23:54:05;98134.0609436717;;;14.32669565880827;74.75455863279164
71642;BME280;60657;50.122;14.468;2023-08-07T23:57:14;98129.8189748889;;;14.438849469748988;74.7450217441062
